sensor_id;sensor_type;location;lat;lon;timestamp;P1;durP1;ratioP1;P2;durP2;ratioP2
43014;SDS011;28637;50.554;7.032;2023-06-14T00:02:53;6.07;;;4.43;;
43014;SDS011;28637;50.554;7.032;2023-06-14T00:07:55;6.13;;;4.70;;
43014;SDS011;28637;50.554;7.032;2023-06-14T00:12:56;5.70;;;4.23;;
43014;SDS011;28637;50.554;7.032;2023-06-14T00:17:57;6.37;;;4.93;;
43014;SDS011;28637;50.554;7.032;2023-06-14T00:23:00;7.20;;;4.78;;
43014;SDS011;28637;50.554;7.032;2023-06-14T00:28:01;5.97;;;4.73;;
43014;SDS011;28637;50.554;7.032;2023-06-14T00:33:02;6.30;;;4.65;;
43014;SDS011;28637;50.554;7.032;2023-06-14T00:38:04;5.68;;;4.60;;
43014;SDS011;28637;50.554;7.032;2023-06-14T00:43:04;5.17;;;4.43;;
43014;SDS011;28637;50.554;7.032;2023-06-14T00:48:05;5.00;;;4.30;;
43014;SDS011;28637;50.554;7.032;2023-06-14T00:53:07;8.18;;;4.90;;
43014;SDS011;28637;50.554;7.032;2023-06-14T00:58:08;5.80;;;4.70;;
43014;SDS011;28637;50.554;7.032;2023-06-14T01:03:10;6.32;;;4.97;;
43014;SDS011;28637;50.554;7.032;2023-06-14T01:08:25;6.22;;;4.88;;
43014;SDS011;28637;50.554;7.032;2023-06-14T01:13:40;6.07;;;4.72;;
43014;SDS011;28637;50.554;7.032;2023-06-14T01:18:45;6.63;;;4.90;;
43014;SDS011;28637;50.554;7.032;2023-06-14T01:23:48;5.32;;;4.70;;
43014;SDS011;28637;50.554;7.032;2023-06-14T01:28:52;6.70;;;4.97;;
43014;SDS011;28637;50.554;7.032;2023-06-14T01:33:58;6.22;;;4.57;;
43014;SDS011;28637;50.554;7.032;2023-06-14T01:38:59;11.23;;;5.13;;
43014;SDS011;28637;50.554;7.032;2023-06-14T01:44:00;9.13;;;5.00;;
43014;SDS011;28637;50.554;7.032;2023-06-14T01:54:02;8.73;;;5.40;;
43014;SDS011;28637;50.554;7.032;2023-06-14T01:59:03;10.10;;;5.10;;
43014;SDS011;28637;50.554;7.032;2023-06-14T02:04:04;8.02;;;5.10;;
43014;SDS011;28637;50.554;7.032;2023-06-14T02:09:04;9.25;;;5.07;;
43014;SDS011;28637;50.554;7.032;2023-06-14T02:14:05;7.27;;;5.20;;
43014;SDS011;28637;50.554;7.032;2023-06-14T02:19:07;6.72;;;5.25;;
43014;SDS011;28637;50.554;7.032;2023-06-14T02:24:07;8.13;;;5.37;;
43014;SDS011;28637;50.554;7.032;2023-06-14T02:29:08;7.57;;;5.13;;
43014;SDS011;28637;50.554;7.032;2023-06-14T02:34:12;9.50;;;5.10;;
43014;SDS011;28637;50.554;7.032;2023-06-14T02:39:13;9.40;;;4.97;;
43014;SDS011;28637;50.554;7.032;2023-06-14T02:44:14;7.17;;;5.10;;
43014;SDS011;28637;50.554;7.032;2023-06-14T02:49:15;4.93;;;4.43;;
43014;SDS011;28637;50.554;7.032;2023-06-14T02:54:15;8.90;;;5.30;;
43014;SDS011;28637;50.554;7.032;2023-06-14T02:59:16;9.43;;;4.93;;
43014;SDS011;28637;50.554;7.032;2023-06-14T03:04:17;6.67;;;5.03;;
43014;SDS011;28637;50.554;7.032;2023-06-14T03:09:17;9.07;;;5.60;;
43014;SDS011;28637;50.554;7.032;2023-06-14T03:14:19;7.53;;;5.63;;
43014;SDS011;28637;50.554;7.032;2023-06-14T03:19:21;6.15;;;4.70;;
43014;SDS011;28637;50.554;7.032;2023-06-14T03:24:23;8.10;;;5.10;;
43014;SDS011;28637;50.554;7.032;2023-06-14T03:29:24;9.98;;;5.57;;
43014;SDS011;28637;50.554;7.032;2023-06-14T03:34:25;7.27;;;5.03;;
43014;SDS011;28637;50.554;7.032;2023-06-14T03:39:26;7.43;;;4.97;;
43014;SDS011;28637;50.554;7.032;2023-06-14T03:44:27;11.07;;;5.20;;
43014;SDS011;28637;50.554;7.032;2023-06-14T03:49:28;13.40;;;5.25;;
43014;SDS011;28637;50.554;7.032;2023-06-14T03:54:28;10.00;;;5.47;;
43014;SDS011;28637;50.554;7.032;2023-06-14T03:59:29;9.23;;;5.20;;
43014;SDS011;28637;50.554;7.032;2023-06-14T04:04:30;7.63;;;5.30;;
43014;SDS011;28637;50.554;7.032;2023-06-14T04:09:31;7.05;;;5.18;;
43014;SDS011;28637;50.554;7.032;2023-06-14T04:14:32;15.43;;;10.30;;
43014;SDS011;28637;50.554;7.032;2023-06-14T04:19:33;11.05;;;7.18;;
43014;SDS011;28637;50.554;7.032;2023-06-14T04:24:33;9.63;;;5.45;;
43014;SDS011;28637;50.554;7.032;2023-06-14T04:29:34;10.37;;;5.37;;
43014;SDS011;28637;50.554;7.032;2023-06-14T04:34:36;6.47;;;5.50;;
43014;SDS011;28637;50.554;7.032;2023-06-14T04:39:37;7.15;;;5.10;;
43014;SDS011;28637;50.554;7.032;2023-06-14T04:44:38;10.43;;;5.13;;
43014;SDS011;28637;50.554;7.032;2023-06-14T04:49:39;9.85;;;5.70;;
43014;SDS011;28637;50.554;7.032;2023-06-14T04:54:40;7.07;;;5.50;;
43014;SDS011;28637;50.554;7.032;2023-06-14T04:59:44;13.50;;;5.78;;
43014;SDS011;28637;50.554;7.032;2023-06-14T05:04:45;13.27;;;5.40;;
43014;SDS011;28637;50.554;7.032;2023-06-14T05:09:47;8.73;;;5.60;;
43014;SDS011;28637;50.554;7.032;2023-06-14T05:14:48;11.20;;;5.63;;
43014;SDS011;28637;50.554;7.032;2023-06-14T05:19:48;8.90;;;5.50;;
43014;SDS011;28637;50.554;7.032;2023-06-14T05:24:49;10.67;;;5.53;;
43014;SDS011;28637;50.554;7.032;2023-06-14T05:29:50;12.97;;;5.40;;
43014;SDS011;28637;50.554;7.032;2023-06-14T05:34:55;6.45;;;5.28;;
43014;SDS011;28637;50.554;7.032;2023-06-14T05:39:56;7.33;;;5.13;;
43014;SDS011;28637;50.554;7.032;2023-06-14T05:44:56;6.83;;;5.63;;
43014;SDS011;28637;50.554;7.032;2023-06-14T05:49:57;9.97;;;5.73;;
43014;SDS011;28637;50.554;7.032;2023-06-14T05:54:58;8.43;;;5.50;;
43014;SDS011;28637;50.554;7.032;2023-06-14T05:59:58;7.40;;;5.03;;
43014;SDS011;28637;50.554;7.032;2023-06-14T06:04:59;6.40;;;5.10;;
43014;SDS011;28637;50.554;7.032;2023-06-14T06:09:59;5.77;;;4.43;;
43014;SDS011;28637;50.554;7.032;2023-06-14T06:15:01;13.50;;;4.70;;
43014;SDS011;28637;50.554;7.032;2023-06-14T06:20:03;6.32;;;4.50;;
43014;SDS011;28637;50.554;7.032;2023-06-14T06:25:06;5.50;;;3.85;;
43014;SDS011;28637;50.554;7.032;2023-06-14T06:30:07;5.47;;;3.90;;
43014;SDS011;28637;50.554;7.032;2023-06-14T06:35:08;8.23;;;4.20;;
43014;SDS011;28637;50.554;7.032;2023-06-14T06:40:10;6.72;;;3.88;;
43014;SDS011;28637;50.554;7.032;2023-06-14T06:45:12;8.27;;;3.85;;
43014;SDS011;28637;50.554;7.032;2023-06-14T06:50:12;5.10;;;3.53;;
43014;SDS011;28637;50.554;7.032;2023-06-14T06:55:13;5.47;;;3.40;;
43014;SDS011;28637;50.554;7.032;2023-06-14T07:00:14;4.32;;;3.53;;
43014;SDS011;28637;50.554;7.032;2023-06-14T07:05:15;7.57;;;4.00;;
43014;SDS011;28637;50.554;7.032;2023-06-14T07:10:16;5.90;;;3.63;;
43014;SDS011;28637;50.554;7.032;2023-06-14T07:15:17;5.03;;;3.60;;
43014;SDS011;28637;50.554;7.032;2023-06-14T07:20:17;7.07;;;3.73;;
43014;SDS011;28637;50.554;7.032;2023-06-14T07:25:18;4.60;;;3.20;;
43014;SDS011;28637;50.554;7.032;2023-06-14T07:30:21;5.70;;;2.95;;
43014;SDS011;28637;50.554;7.032;2023-06-14T07:35:25;4.88;;;3.38;;
43014;SDS011;28637;50.554;7.032;2023-06-14T07:40:26;6.73;;;3.60;;
43014;SDS011;28637;50.554;7.032;2023-06-14T07:50:28;7.97;;;3.63;;
43014;SDS011;28637;50.554;7.032;2023-06-14T07:55:29;5.80;;;2.80;;
43014;SDS011;28637;50.554;7.032;2023-06-14T08:00:30;6.05;;;3.10;;
43014;SDS011;28637;50.554;7.032;2023-06-14T08:05:31;7.75;;;3.13;;
43014;SDS011;28637;50.554;7.032;2023-06-14T08:10:31;3.72;;;2.90;;
43014;SDS011;28637;50.554;7.032;2023-06-14T08:15:32;4.70;;;2.88;;
43014;SDS011;28637;50.554;7.032;2023-06-14T08:20:33;4.22;;;2.92;;
43014;SDS011;28637;50.554;7.032;2023-06-14T08:25:35;3.83;;;2.72;;
43014;SDS011;28637;50.554;7.032;2023-06-14T08:30:36;5.95;;;3.05;;
43014;SDS011;28637;50.554;7.032;2023-06-14T08:35:36;4.30;;;3.00;;
43014;SDS011;28637;50.554;7.032;2023-06-14T08:40:38;6.85;;;2.65;;
43014;SDS011;28637;50.554;7.032;2023-06-14T08:45:41;4.20;;;3.05;;
43014;SDS011;28637;50.554;7.032;2023-06-14T08:50:42;5.32;;;2.70;;
43014;SDS011;28637;50.554;7.032;2023-06-14T08:55:45;4.30;;;2.47;;
43014;SDS011;28637;50.554;7.032;2023-06-14T09:00:47;3.85;;;2.10;;
43014;SDS011;28637;50.554;7.032;2023-06-14T09:05:50;3.15;;;2.22;;
43014;SDS011;28637;50.554;7.032;2023-06-14T09:10:52;4.28;;;2.15;;
43014;SDS011;28637;50.554;7.032;2023-06-14T09:15:52;2.72;;;2.17;;
43014;SDS011;28637;50.554;7.032;2023-06-14T09:25:54;3.43;;;1.73;;
43014;SDS011;28637;50.554;7.032;2023-06-14T09:30:55;3.22;;;2.00;;
43014;SDS011;28637;50.554;7.032;2023-06-14T09:35:56;3.15;;;1.60;;
43014;SDS011;28637;50.554;7.032;2023-06-14T09:40:58;2.95;;;1.77;;
43014;SDS011;28637;50.554;7.032;2023-06-14T09:45:59;1.83;;;1.70;;
43014;SDS011;28637;50.554;7.032;2023-06-14T09:51:01;2.30;;;1.58;;
43014;SDS011;28637;50.554;7.032;2023-06-14T09:56:02;3.67;;;1.83;;
43014;SDS011;28637;50.554;7.032;2023-06-14T10:01:05;2.55;;;1.60;;
43014;SDS011;28637;50.554;7.032;2023-06-14T10:06:09;2.70;;;1.70;;
43014;SDS011;28637;50.554;7.032;2023-06-14T10:11:11;2.53;;;1.63;;
43014;SDS011;28637;50.554;7.032;2023-06-14T10:16:22;2.05;;;1.80;;
43014;SDS011;28637;50.554;7.032;2023-06-14T10:21:41;3.72;;;2.03;;
43014;SDS011;28637;50.554;7.032;2023-06-14T10:26:56;2.80;;;2.08;;
43014;SDS011;28637;50.554;7.032;2023-06-14T10:31:59;4.13;;;2.15;;
43014;SDS011;28637;50.554;7.032;2023-06-14T10:37:12;1.90;;;1.60;;
43014;SDS011;28637;50.554;7.032;2023-06-14T10:42:14;2.67;;;2.00;;
43014;SDS011;28637;50.554;7.032;2023-06-14T10:52:40;3.50;;;2.00;;
43014;SDS011;28637;50.554;7.032;2023-06-14T10:57:46;2.00;;;1.80;;
43014;SDS011;28637;50.554;7.032;2023-06-14T11:08:27;1.70;;;1.60;;
43014;SDS011;28637;50.554;7.032;2023-06-14T11:13:52;3.55;;;1.80;;
43014;SDS011;28637;50.554;7.032;2023-06-14T11:23:53;1.73;;;1.60;;
43014;SDS011;28637;50.554;7.032;2023-06-14T11:28:56;3.78;;;1.90;;
43014;SDS011;28637;50.554;7.032;2023-06-14T11:33:58;3.78;;;1.90;;
43014;SDS011;28637;50.554;7.032;2023-06-14T11:39:00;2.58;;;1.73;;
43014;SDS011;28637;50.554;7.032;2023-06-14T11:44:03;2.78;;;1.92;;
43014;SDS011;28637;50.554;7.032;2023-06-14T11:49:04;1.98;;;1.77;;
43014;SDS011;28637;50.554;7.032;2023-06-14T11:54:08;1.70;;;1.60;;
43014;SDS011;28637;50.554;7.032;2023-06-14T11:59:09;1.67;;;1.58;;
43014;SDS011;28637;50.554;7.032;2023-06-14T12:04:10;1.75;;;1.55;;
43014;SDS011;28637;50.554;7.032;2023-06-14T12:09:11;5.03;;;1.60;;
43014;SDS011;28637;50.554;7.032;2023-06-14T12:14:16;1.60;;;1.50;;
43014;SDS011;28637;50.554;7.032;2023-06-14T12:19:17;1.88;;;1.50;;
43014;SDS011;28637;50.554;7.032;2023-06-14T12:24:17;1.65;;;1.48;;
43014;SDS011;28637;50.554;7.032;2023-06-14T12:29:19;1.92;;;1.50;;
43014;SDS011;28637;50.554;7.032;2023-06-14T12:34:20;5.82;;;1.40;;
43014;SDS011;28637;50.554;7.032;2023-06-14T12:39:20;1.25;;;1.15;;
43014;SDS011;28637;50.554;7.032;2023-06-14T12:44:21;2.22;;;1.30;;
43014;SDS011;28637;50.554;7.032;2023-06-14T12:49:22;1.55;;;1.30;;
43014;SDS011;28637;50.554;7.032;2023-06-14T12:54:23;2.88;;;1.40;;
43014;SDS011;28637;50.554;7.032;2023-06-14T12:59:25;1.52;;;1.27;;
43014;SDS011;28637;50.554;7.032;2023-06-14T13:04:32;2.22;;;1.50;;
43014;SDS011;28637;50.554;7.032;2023-06-14T13:09:33;3.95;;;1.40;;
43014;SDS011;28637;50.554;7.032;2023-06-14T13:14:34;3.08;;;1.30;;
43014;SDS011;28637;50.554;7.032;2023-06-14T13:19:34;3.10;;;1.30;;
43014;SDS011;28637;50.554;7.032;2023-06-14T13:24:35;1.67;;;1.58;;
43014;SDS011;28637;50.554;7.032;2023-06-14T13:29:36;3.03;;;1.50;;
43014;SDS011;28637;50.554;7.032;2023-06-14T13:34:37;1.83;;;1.50;;
43014;SDS011;28637;50.554;7.032;2023-06-14T13:39:38;4.22;;;1.60;;
43014;SDS011;28637;50.554;7.032;2023-06-14T13:44:39;2.10;;;1.45;;
43014;SDS011;28637;50.554;7.032;2023-06-14T13:49:39;3.67;;;1.60;;
43014;SDS011;28637;50.554;7.032;2023-06-14T13:54:40;1.75;;;1.50;;
43014;SDS011;28637;50.554;7.032;2023-06-14T13:59:42;1.55;;;1.40;;
43014;SDS011;28637;50.554;7.032;2023-06-14T14:04:46;2.35;;;1.60;;
43014;SDS011;28637;50.554;7.032;2023-06-14T14:09:52;1.80;;;1.70;;
43014;SDS011;28637;50.554;7.032;2023-06-14T14:14:53;2.10;;;1.70;;
43014;SDS011;28637;50.554;7.032;2023-06-14T14:19:54;1.80;;;1.67;;
43014;SDS011;28637;50.554;7.032;2023-06-14T14:24:55;6.30;;;1.90;;
43014;SDS011;28637;50.554;7.032;2023-06-14T14:29:55;2.13;;;1.80;;
43014;SDS011;28637;50.554;7.032;2023-06-14T14:34:56;2.97;;;1.90;;
43014;SDS011;28637;50.554;7.032;2023-06-14T14:39:57;3.17;;;1.75;;
43014;SDS011;28637;50.554;7.032;2023-06-14T14:44:57;2.33;;;1.67;;
43014;SDS011;28637;50.554;7.032;2023-06-14T14:49:58;3.00;;;1.90;;
43014;SDS011;28637;50.554;7.032;2023-06-14T14:54:58;4.15;;;1.90;;
43014;SDS011;28637;50.554;7.032;2023-06-14T15:00:00;2.72;;;1.90;;
43014;SDS011;28637;50.554;7.032;2023-06-14T15:05:01;2.13;;;1.65;;
43014;SDS011;28637;50.554;7.032;2023-06-14T15:10:02;1.70;;;1.58;;
43014;SDS011;28637;50.554;7.032;2023-06-14T15:15:05;2.33;;;1.85;;
43014;SDS011;28637;50.554;7.032;2023-06-14T15:20:06;3.22;;;1.80;;
43014;SDS011;28637;50.554;7.032;2023-06-14T15:25:08;3.38;;;1.77;;
43014;SDS011;28637;50.554;7.032;2023-06-14T15:30:09;4.10;;;1.77;;
43014;SDS011;28637;50.554;7.032;2023-06-14T15:35:09;3.70;;;1.77;;
43014;SDS011;28637;50.554;7.032;2023-06-14T15:40:12;2.83;;;1.77;;
43014;SDS011;28637;50.554;7.032;2023-06-14T15:45:12;2.80;;;1.65;;
43014;SDS011;28637;50.554;7.032;2023-06-14T15:50:13;2.58;;;1.60;;
43014;SDS011;28637;50.554;7.032;2023-06-14T15:55:14;1.88;;;1.60;;
43014;SDS011;28637;50.554;7.032;2023-06-14T16:00:15;2.80;;;1.80;;
43014;SDS011;28637;50.554;7.032;2023-06-14T16:05:16;1.90;;;1.80;;
43014;SDS011;28637;50.554;7.032;2023-06-14T16:10:16;1.77;;;1.60;;
43014;SDS011;28637;50.554;7.032;2023-06-14T16:15:17;2.00;;;1.85;;
43014;SDS011;28637;50.554;7.032;2023-06-14T16:20:18;2.00;;;1.73;;
43014;SDS011;28637;50.554;7.032;2023-06-14T16:25:18;2.00;;;1.80;;
43014;SDS011;28637;50.554;7.032;2023-06-14T16:30:19;3.75;;;1.90;;
43014;SDS011;28637;50.554;7.032;2023-06-14T16:35:20;2.80;;;1.85;;
43014;SDS011;28637;50.554;7.032;2023-06-14T16:40:20;4.57;;;1.98;;
43014;SDS011;28637;50.554;7.032;2023-06-14T16:45:21;1.90;;;1.80;;
43014;SDS011;28637;50.554;7.032;2023-06-14T16:50:23;2.30;;;1.88;;
43014;SDS011;28637;50.554;7.032;2023-06-14T16:55:23;2.33;;;1.83;;
43014;SDS011;28637;50.554;7.032;2023-06-14T17:00:24;4.15;;;1.80;;
43014;SDS011;28637;50.554;7.032;2023-06-14T17:05:25;2.30;;;2.00;;
43014;SDS011;28637;50.554;7.032;2023-06-14T17:10:26;2.58;;;1.80;;
43014;SDS011;28637;50.554;7.032;2023-06-14T17:15:26;2.10;;;1.90;;
43014;SDS011;28637;50.554;7.032;2023-06-14T17:20:27;2.38;;;1.77;;
43014;SDS011;28637;50.554;7.032;2023-06-14T17:25:28;2.63;;;2.05;;
43014;SDS011;28637;50.554;7.032;2023-06-14T17:30:29;2.10;;;1.90;;
43014;SDS011;28637;50.554;7.032;2023-06-14T17:35:30;3.55;;;1.73;;
43014;SDS011;28637;50.554;7.032;2023-06-14T17:40:32;3.30;;;2.05;;
43014;SDS011;28637;50.554;7.032;2023-06-14T17:45:32;2.78;;;1.70;;
43014;SDS011;28637;50.554;7.032;2023-06-14T17:50:33;3.42;;;1.88;;
43014;SDS011;28637;50.554;7.032;2023-06-14T17:55:38;3.60;;;1.80;;
43014;SDS011;28637;50.554;7.032;2023-06-14T18:00:39;5.63;;;2.00;;
43014;SDS011;28637;50.554;7.032;2023-06-14T18:05:43;2.03;;;1.90;;
43014;SDS011;28637;50.554;7.032;2023-06-14T18:10:44;2.65;;;1.90;;
43014;SDS011;28637;50.554;7.032;2023-06-14T18:15:44;3.45;;;2.00;;
43014;SDS011;28637;50.554;7.032;2023-06-14T18:20:45;2.20;;;2.00;;
43014;SDS011;28637;50.554;7.032;2023-06-14T18:25:46;3.10;;;1.83;;
43014;SDS011;28637;50.554;7.032;2023-06-14T18:30:46;3.08;;;2.08;;
43014;SDS011;28637;50.554;7.032;2023-06-14T18:35:47;5.68;;;2.50;;
43014;SDS011;28637;50.554;7.032;2023-06-14T18:40:47;2.00;;;1.80;;
43014;SDS011;28637;50.554;7.032;2023-06-14T18:45:51;2.30;;;2.10;;
43014;SDS011;28637;50.554;7.032;2023-06-14T18:55:53;5.43;;;2.07;;
43014;SDS011;28637;50.554;7.032;2023-06-14T19:05:54;4.70;;;2.10;;
43014;SDS011;28637;50.554;7.032;2023-06-14T19:10:57;4.35;;;2.40;;
43014;SDS011;28637;50.554;7.032;2023-06-14T19:15:58;7.47;;;3.10;;
43014;SDS011;28637;50.554;7.032;2023-06-14T19:20:58;7.72;;;2.30;;
43014;SDS011;28637;50.554;7.032;2023-06-14T19:25:59;5.80;;;2.63;;
43014;SDS011;28637;50.554;7.032;2023-06-14T19:31:00;2.90;;;2.53;;
43014;SDS011;28637;50.554;7.032;2023-06-14T19:36:00;2.60;;;2.30;;
43014;SDS011;28637;50.554;7.032;2023-06-14T19:41:01;4.53;;;2.67;;
43014;SDS011;28637;50.554;7.032;2023-06-14T19:46:02;3.53;;;2.77;;
43014;SDS011;28637;50.554;7.032;2023-06-14T19:51:03;2.80;;;2.50;;
43014;SDS011;28637;50.554;7.032;2023-06-14T19:56:03;3.23;;;2.93;;
43014;SDS011;28637;50.554;7.032;2023-06-14T20:01:05;7.18;;;2.70;;
43014;SDS011;28637;50.554;7.032;2023-06-14T20:06:06;5.80;;;2.70;;
43014;SDS011;28637;50.554;7.032;2023-06-14T20:11:06;6.97;;;2.97;;
43014;SDS011;28637;50.554;7.032;2023-06-14T20:16:07;6.10;;;3.00;;
43014;SDS011;28637;50.554;7.032;2023-06-14T20:21:08;6.50;;;2.97;;
43014;SDS011;28637;50.554;7.032;2023-06-14T20:26:08;7.37;;;2.93;;
43014;SDS011;28637;50.554;7.032;2023-06-14T20:31:09;4.73;;;3.00;;
43014;SDS011;28637;50.554;7.032;2023-06-14T20:36:11;3.92;;;3.08;;
43014;SDS011;28637;50.554;7.032;2023-06-14T20:41:12;3.13;;;2.90;;
43014;SDS011;28637;50.554;7.032;2023-06-14T20:46:12;14.63;;;2.83;;
43014;SDS011;28637;50.554;7.032;2023-06-14T20:51:14;6.82;;;3.00;;
43014;SDS011;28637;50.554;7.032;2023-06-14T20:56:14;14.60;;;3.20;;
43014;SDS011;28637;50.554;7.032;2023-06-14T21:01:15;4.90;;;2.97;;
43014;SDS011;28637;50.554;7.032;2023-06-14T21:06:16;4.77;;;2.90;;
43014;SDS011;28637;50.554;7.032;2023-06-14T21:11:17;4.57;;;3.10;;
43014;SDS011;28637;50.554;7.032;2023-06-14T21:16:18;5.50;;;3.00;;
43014;SDS011;28637;50.554;7.032;2023-06-14T21:21:18;3.70;;;3.30;;
43014;SDS011;28637;50.554;7.032;2023-06-14T21:26:19;3.10;;;2.87;;
43014;SDS011;28637;50.554;7.032;2023-06-14T21:31:22;4.50;;;2.90;;
43014;SDS011;28637;50.554;7.032;2023-06-14T21:36:23;3.20;;;2.83;;
43014;SDS011;28637;50.554;7.032;2023-06-14T21:41:24;3.73;;;3.10;;
43014;SDS011;28637;50.554;7.032;2023-06-14T21:46:29;5.32;;;3.28;;
43014;SDS011;28637;50.554;7.032;2023-06-14T21:51:31;5.00;;;3.20;;
43014;SDS011;28637;50.554;7.032;2023-06-14T21:56:32;4.00;;;3.13;;
43014;SDS011;28637;50.554;7.032;2023-06-14T22:01:32;8.50;;;3.17;;
43014;SDS011;28637;50.554;7.032;2023-06-14T22:06:33;4.87;;;3.20;;
43014;SDS011;28637;50.554;7.032;2023-06-14T22:11:34;3.60;;;3.03;;
43014;SDS011;28637;50.554;7.032;2023-06-14T22:16:34;3.73;;;3.20;;
43014;SDS011;28637;50.554;7.032;2023-06-14T22:21:35;4.32;;;3.17;;
43014;SDS011;28637;50.554;7.032;2023-06-14T22:26:40;5.00;;;2.93;;
43014;SDS011;28637;50.554;7.032;2023-06-14T22:31:47;3.53;;;2.90;;
43014;SDS011;28637;50.554;7.032;2023-06-14T22:36:48;4.43;;;3.17;;
43014;SDS011;28637;50.554;7.032;2023-06-14T22:41:49;4.00;;;3.17;;
43014;SDS011;28637;50.554;7.032;2023-06-14T22:46:50;5.53;;;3.40;;
43014;SDS011;28637;50.554;7.032;2023-06-14T22:51:54;3.30;;;3.00;;
43014;SDS011;28637;50.554;7.032;2023-06-14T22:56:56;5.38;;;3.45;;
43014;SDS011;28637;50.554;7.032;2023-06-14T23:01:59;3.30;;;2.97;;
43014;SDS011;28637;50.554;7.032;2023-06-14T23:07:00;4.80;;;3.17;;
43014;SDS011;28637;50.554;7.032;2023-06-14T23:12:03;4.07;;;3.00;;
43014;SDS011;28637;50.554;7.032;2023-06-14T23:17:07;3.58;;;3.28;;
43014;SDS011;28637;50.554;7.032;2023-06-14T23:22:08;5.83;;;3.20;;
43014;SDS011;28637;50.554;7.032;2023-06-14T23:27:12;6.22;;;3.10;;
43014;SDS011;28637;50.554;7.032;2023-06-14T23:32:13;3.13;;;2.83;;
43014;SDS011;28637;50.554;7.032;2023-06-14T23:37:16;3.38;;;2.90;;
43014;SDS011;28637;50.554;7.032;2023-06-14T23:42:16;5.70;;;3.13;;
43014;SDS011;28637;50.554;7.032;2023-06-14T23:52:19;3.30;;;3.00;;
43014;SDS011;28637;50.554;7.032;2023-06-14T23:57:21;3.38;;;3.08;;
